createdAt,value
2018-08-24T00:00:33.749Z,32.7
2018-08-24T00:01:35.220Z,32.7
2018-08-24T00:02:36.861Z,32.7
2018-08-24T00:03:38.466Z,33.7
2018-08-24T00:04:39.743Z,32.3
2018-08-24T00:05:41.359Z,32.7
2018-08-24T00:06:42.974Z,32.7
2018-08-24T00:07:44.574Z,33.2
2018-08-24T00:08:45.860Z,33.2
2018-08-24T00:09:47.323Z,33.2
2018-08-24T00:10:48.791Z,32.7
2018-08-24T00:11:50.400Z,32.3
2018-08-24T00:12:51.995Z,32.3
2018-08-24T00:13:53.427Z,32.7
2018-08-24T00:14:55.033Z,32.7
2018-08-24T00:15:56.301Z,32.7
2018-08-24T00:16:57.904Z,32.7
2018-08-24T00:17:59.348Z,32.3
2018-08-24T00:19:00.779Z,32.7
2018-08-24T00:20:02.255Z,32.7
2018-08-24T00:21:03.872Z,32.7
2018-08-24T00:22:05.147Z,32.3
2018-08-24T00:23:06.434Z,33.2
2018-08-24T00:24:07.531Z,33.2
2018-08-24T00:25:08.803Z,33.2
2018-08-24T00:26:10.452Z,32.7
2018-08-24T00:27:11.884Z,32.7
2018-08-24T00:28:13.517Z,33.2
2018-08-24T00:29:15.102Z,33.7
2018-08-24T00:30:16.723Z,33.2
2018-08-24T00:31:18.153Z,33.2
2018-08-24T00:32:19.656Z,33.2
2018-08-24T00:33:21.102Z,32.3
2018-08-24T00:34:22.407Z,32.7
2018-08-24T00:35:24.016Z,32.7
2018-08-24T00:36:25.632Z,33.2
2018-08-24T00:37:26.925Z,33.2
2018-08-24T00:38:28.539Z,33.2
2018-08-24T00:39:30.171Z,32.7
2018-08-24T00:40:31.783Z,32.7
2018-08-24T00:41:33.214Z,31.8
2018-08-24T00:42:34.666Z,33.2
2018-08-24T00:43:36.460Z,33.2
2018-08-24T00:44:37.889Z,33.2
2018-08-24T00:45:39.505Z,33.2
2018-08-24T00:46:41.111Z,33.7
2018-08-24T00:47:42.556Z,32.7
2018-08-24T00:48:44.013Z,32.7
2018-08-24T00:49:45.607Z,32.3
2018-08-24T00:50:47.045Z,32.7
2018-08-24T00:51:48.693Z,33.2
2018-08-24T00:52:49.973Z,32.7
2018-08-24T00:53:51.435Z,33.2
2018-08-24T00:54:52.729Z,32.7
2018-08-24T00:55:54.345Z,33.2
2018-08-24T00:56:55.777Z,32.3
2018-08-24T00:57:57.226Z,32.7
2018-08-24T00:58:58.836Z,33.2
2018-08-24T01:00:00.464Z,33.7
2018-08-24T01:01:01.896Z,32.7
2018-08-24T01:02:03.525Z,33.2
2018-08-24T01:03:05.129Z,33.2
2018-08-24T01:04:06.569Z,33.2
2018-08-24T01:05:08.029Z,33.2
2018-08-24T01:06:09.498Z,33.2
2018-08-24T01:07:11.135Z,33.7
2018-08-24T01:08:12.616Z,31.8
2018-08-24T01:09:14.070Z,29.8
2018-08-24T01:10:15.684Z,28.3
2018-08-24T01:11:17.131Z,28.3
2018-08-24T01:12:18.777Z,27.9
2018-08-24T01:13:20.403Z,29.3
2018-08-24T01:14:21.846Z,29.8
2018-08-24T01:15:23.467Z,31.8
2018-08-24T01:16:24.907Z,33.2
2018-08-24T01:17:26.340Z,34.2
2018-08-24T01:18:27.963Z,35.2
2018-08-24T01:19:29.396Z,35.7
2018-08-24T01:20:31.042Z,35.7
2018-08-24T01:21:32.318Z,36.7
2018-08-24T01:22:33.751Z,37.6
2018-08-24T01:23:35.343Z,38.1
2018-08-24T01:24:36.926Z,37.6
2018-08-24T01:25:38.359Z,39.1
2018-08-24T01:26:40.005Z,39.1
2018-08-24T01:27:41.619Z,39.1
2018-08-24T01:28:43.217Z,39.1
2018-08-24T01:29:44.486Z,39.1
2018-08-24T01:30:45.909Z,39.6
2018-08-24T01:31:47.496Z,40.6
2018-08-24T01:32:48.962Z,41.1
2018-08-24T01:33:50.585Z,39.6
2018-08-24T01:34:52.015Z,41.1
2018-08-24T01:35:53.619Z,40.6
2018-08-24T01:36:54.896Z,40.6
2018-08-24T01:37:56.335Z,41.1
2018-08-24T01:38:57.789Z,41.1
2018-08-24T01:39:59.385Z,41.5
2018-08-24T01:41:00.993Z,40.6
2018-08-24T01:42:02.632Z,41.5
2018-08-24T01:43:04.256Z,41.1
2018-08-24T01:44:05.878Z,41.5
2018-08-24T01:45:07.491Z,41.5
2018-08-24T01:46:09.087Z,41.5
2018-08-24T01:47:10.696Z,41.5
2018-08-24T01:48:12.151Z,42
2018-08-24T01:49:13.454Z,42
2018-08-24T01:50:15.065Z,41.1
2018-08-24T01:51:16.514Z,41.5
2018-08-24T01:52:18.122Z,41.1
2018-08-24T01:53:19.557Z,42.5
2018-08-24T01:54:21.016Z,42
2018-08-24T01:55:22.640Z,41.5
2018-08-24T01:56:24.249Z,42
2018-08-24T01:57:25.689Z,42
2018-08-24T01:58:27.271Z,41.5
2018-08-24T01:59:28.889Z,41.5
2018-08-24T02:00:30.505Z,41.1
2018-08-24T02:01:31.814Z,41.5
2018-08-24T02:02:33.258Z,41.5
2018-08-24T02:03:34.873Z,42.5
2018-08-24T02:04:36.331Z,41.1
2018-08-24T02:05:37.928Z,41.5
2018-08-24T02:06:39.364Z,41.5
2018-08-24T02:07:40.956Z,41.1
2018-08-24T02:08:42.407Z,41.5
2018-08-24T02:09:44.030Z,40.6
2018-08-24T02:10:45.644Z,40.6
2018-08-24T02:11:47.279Z,40.6
2018-08-24T02:12:48.888Z,41.5
2018-08-24T02:13:50.326Z,40.6
2018-08-24T02:14:51.947Z,41.1
2018-08-24T02:15:53.546Z,41.1
2018-08-24T02:16:55.156Z,40.6
2018-08-24T02:17:56.606Z,41.1
2018-08-24T02:18:58.216Z,40.6
2018-08-24T02:19:59.816Z,41.5
2018-08-24T02:21:01.248Z,40.6
2018-08-24T02:22:02.833Z,41.5
2018-08-24T02:23:04.282Z,41.5
2018-08-24T02:24:05.897Z,40.6
2018-08-24T02:25:07.507Z,41.1
2018-08-24T02:26:09.116Z,40.6
2018-08-24T02:27:10.721Z,40.6
2018-08-24T02:28:12.316Z,41.1
2018-08-24T02:29:13.935Z,40.1
2018-08-24T02:30:15.387Z,41.1
2018-08-24T02:31:17.405Z,40.6
2018-08-24T02:32:19.422Z,40.6
2018-08-24T02:33:20.861Z,40.6
2018-08-24T02:34:22.464Z,40.6
2018-08-24T02:35:24.076Z,41.1
2018-08-24T02:36:25.372Z,41.1
2018-08-24T02:37:26.989Z,41.1
2018-08-24T02:38:28.596Z,40.6
2018-08-24T02:39:30.214Z,40.1
2018-08-24T02:40:31.480Z,41.1
2018-08-24T02:41:32.757Z,40.1
2018-08-24T02:42:34.367Z,40.1
2018-08-24T02:43:35.817Z,40.6
2018-08-24T02:44:37.264Z,40.6
2018-08-24T02:45:38.717Z,39.6
2018-08-24T02:46:40.158Z,40.1
2018-08-24T02:47:41.592Z,40.1
2018-08-24T02:48:43.041Z,40.1
2018-08-24T02:49:44.662Z,40.6
2018-08-24T02:50:45.953Z,40.6
2018-08-24T02:51:47.417Z,39.1
2018-08-24T02:52:49.032Z,39.6
2018-08-24T02:53:50.336Z,39.6
2018-08-24T02:54:51.962Z,40.1
2018-08-24T02:55:53.091Z,40.1
2018-08-24T02:56:54.695Z,40.6
2018-08-24T02:57:56.303Z,40.1
2018-08-24T02:58:57.945Z,40.1
2018-08-24T02:59:59.437Z,40.1
2018-08-24T03:01:01.091Z,40.1
2018-08-24T03:02:02.691Z,40.1
2018-08-24T03:03:04.147Z,40.1
2018-08-24T03:04:05.593Z,39.6
2018-08-24T03:05:07.418Z,39.6
2018-08-24T03:06:09.262Z,39.6
2018-08-24T03:07:10.852Z,40.1
2018-08-24T03:08:12.604Z,40.1
2018-08-24T03:09:14.129Z,39.6
2018-08-24T03:10:15.745Z,40.1
2018-08-24T03:11:17.163Z,39.6
2018-08-24T03:12:18.767Z,40.1
2018-08-24T03:13:20.380Z,40.1
2018-08-24T03:14:21.796Z,39.6
2018-08-24T03:15:23.409Z,40.1
2018-08-24T03:16:25.489Z,39.6
2018-08-24T03:17:27.342Z,39.6
2018-08-24T03:18:28.789Z,39.6
2018-08-24T03:19:30.403Z,40.1
2018-08-24T03:20:32.008Z,39.6
2018-08-24T03:21:33.626Z,39.6
2018-08-24T03:22:35.054Z,40.1
2018-08-24T03:23:36.507Z,40.1
2018-08-24T03:24:38.141Z,40.1
2018-08-24T03:25:39.588Z,39.6
2018-08-24T03:26:41.198Z,40.1
2018-08-24T03:27:42.626Z,40.6
2018-08-24T03:28:44.236Z,41.1
2018-08-24T03:29:45.844Z,40.6
2018-08-24T03:30:47.456Z,40.6
2018-08-24T03:31:49.102Z,41.1
2018-08-24T03:32:51.007Z,41.5
2018-08-24T03:33:52.472Z,41.1
2018-08-24T03:34:53.916Z,40.6
2018-08-24T03:35:55.507Z,41.1
2018-08-24T03:36:57.136Z,42.5
2018-08-24T03:37:58.757Z,41.1
2018-08-24T03:39:00.216Z,41.1
2018-08-24T03:40:01.839Z,42
2018-08-24T03:41:03.518Z,41.5
2018-08-24T03:42:05.160Z,42
2018-08-24T03:43:06.617Z,42
2018-08-24T03:44:07.872Z,42
2018-08-24T03:45:09.914Z,41.5
2018-08-24T03:46:11.604Z,41.5
2018-08-24T03:47:13.118Z,42
2018-08-24T03:48:14.610Z,42
2018-08-24T03:49:16.285Z,41.5
2018-08-24T03:50:17.739Z,42.5
2018-08-24T03:51:19.376Z,42
2018-08-24T03:52:20.866Z,42
2018-08-24T03:53:23.155Z,41.1
2018-08-24T03:54:25.223Z,42
2018-08-24T03:55:26.838Z,42
2018-08-24T03:56:28.300Z,41.5
2018-08-24T03:57:29.613Z,41.1
2018-08-24T03:58:31.216Z,42
2018-08-24T03:59:32.836Z,42
2018-08-24T04:00:34.295Z,42.5
2018-08-24T04:01:35.560Z,41.5
2018-08-24T04:02:37.159Z,41.5
2018-08-24T04:03:38.456Z,41.1
2018-08-24T04:04:39.916Z,42
2018-08-24T04:05:41.514Z,43
2018-08-24T04:06:43.135Z,41.5
2018-08-24T04:07:44.416Z,41.5
2018-08-24T04:08:46.045Z,41.5
2018-08-24T04:09:47.663Z,41.5
2018-08-24T04:10:49.261Z,41.1
2018-08-24T04:11:50.882Z,41.1
2018-08-24T04:12:52.966Z,41.1
2018-08-24T04:13:54.822Z,41.5
2018-08-24T04:14:56.453Z,41.5
2018-08-24T04:15:58.092Z,41.1
2018-08-24T04:16:59.526Z,41.5
2018-08-24T04:18:01.120Z,42
2018-08-24T04:19:02.729Z,41.5
2018-08-24T04:20:03.994Z,40.6
2018-08-24T04:21:05.589Z,40.6
2018-08-24T04:22:06.862Z,42
2018-08-24T04:23:08.307Z,42
2018-08-24T04:24:09.774Z,41.1
2018-08-24T04:25:11.216Z,41.1
2018-08-24T04:26:13.061Z,40.6
2018-08-24T04:27:14.679Z,41.5
2018-08-24T04:28:16.135Z,41.5
2018-08-24T04:29:17.755Z,41.5
2018-08-24T04:30:19.364Z,41.1
2018-08-24T04:31:20.989Z,40.6
2018-08-24T04:32:22.084Z,40.6
2018-08-24T04:33:23.520Z,41.1
2018-08-24T04:34:24.796Z,41.1
2018-08-24T04:35:26.441Z,40.6
2018-08-24T04:36:28.054Z,40.6
2018-08-24T04:37:29.695Z,40.6
2018-08-24T04:38:31.131Z,41.1
2018-08-24T04:39:32.754Z,41.1
2018-08-24T04:40:34.236Z,40.6
2018-08-24T04:41:35.706Z,40.6
2018-08-24T04:42:37.165Z,41.1
2018-08-24T04:43:38.771Z,40.6
2018-08-24T04:44:40.381Z,40.6
2018-08-24T04:45:42.636Z,39.6
2018-08-24T04:46:44.159Z,41.1
2018-08-24T04:47:45.791Z,40.6
2018-08-24T04:48:47.261Z,40.1
2018-08-24T04:49:48.706Z,40.1
2018-08-24T04:50:50.303Z,40.6
2018-08-24T04:51:51.758Z,40.6
2018-08-24T04:52:53.375Z,40.1
2018-08-24T04:53:54.803Z,39.6
2018-08-24T04:54:56.249Z,40.1
2018-08-24T04:55:57.863Z,41.1
2018-08-24T04:56:59.484Z,40.6
2018-08-24T04:58:01.131Z,39.6
2018-08-24T04:59:02.443Z,39.6
2018-08-24T05:00:04.091Z,40.1
2018-08-24T05:01:05.523Z,40.1
2018-08-24T05:02:06.995Z,39.6
2018-08-24T05:03:08.615Z,39.6
2018-08-24T05:04:10.262Z,40.6
2018-08-24T05:05:11.884Z,39.6
2018-08-24T05:06:13.341Z,40.1
2018-08-24T05:07:14.797Z,40.6
2018-08-24T05:08:16.254Z,40.6
2018-08-24T05:09:17.697Z,39.1
2018-08-24T05:10:19.301Z,40.6
2018-08-24T05:11:20.760Z,40.1
2018-08-24T05:12:22.216Z,40.1
2018-08-24T05:13:23.835Z,40.1
2018-08-24T05:14:25.263Z,40.1
2018-08-24T05:15:26.710Z,39.6
2018-08-24T05:16:28.171Z,40.1
2018-08-24T05:17:29.804Z,40.1
2018-08-24T05:18:31.415Z,39.1
2018-08-24T05:19:33.009Z,39.6
2018-08-24T05:20:34.657Z,39.6
2018-08-24T05:21:35.932Z,39.1
2018-08-24T05:22:37.590Z,39.6
2018-08-24T05:23:39.042Z,38.6
2018-08-24T05:24:40.844Z,40.1
2018-08-24T05:25:42.555Z,39.6
2018-08-24T05:26:43.997Z,39.6
2018-08-24T05:27:45.442Z,39.6
2018-08-24T05:28:47.040Z,39.1
2018-08-24T05:29:48.540Z,39.6
2018-08-24T05:30:49.829Z,39.6
2018-08-24T05:31:51.433Z,40.1
2018-08-24T05:32:52.732Z,40.6
2018-08-24T05:33:54.019Z,39.6
2018-08-24T05:34:55.453Z,40.6
2018-08-24T05:35:56.730Z,41.1
2018-08-24T05:36:58.163Z,40.6
2018-08-24T05:37:59.448Z,41.1
2018-08-24T05:39:00.743Z,41.1
2018-08-24T05:40:02.194Z,40.1
2018-08-24T05:41:03.623Z,41.1
2018-08-24T05:42:05.222Z,41.1
2018-08-24T05:43:06.675Z,41.5
2018-08-24T05:44:08.135Z,41.5
2018-08-24T05:45:09.739Z,41.5
2018-08-24T05:46:11.346Z,42
2018-08-24T05:47:12.974Z,42
2018-08-24T05:48:14.572Z,41.5
2018-08-24T05:49:16.193Z,41.5
2018-08-24T05:50:17.635Z,41.1
2018-08-24T05:51:19.240Z,41.5
2018-08-24T05:52:20.708Z,42
2018-08-24T05:53:22.163Z,41.5
2018-08-24T05:54:23.804Z,41.5
2018-08-24T05:55:25.256Z,42
2018-08-24T05:56:26.876Z,42
2018-08-24T05:57:28.503Z,42
2018-08-24T05:58:29.931Z,42
2018-08-24T05:59:31.404Z,42
2018-08-24T06:00:32.711Z,42.5
2018-08-24T06:01:33.987Z,41.5
2018-08-24T06:02:35.605Z,41.5
2018-08-24T06:03:37.236Z,41.5
2018-08-24T06:04:38.866Z,41.5
2018-08-24T06:05:40.673Z,41.5
2018-08-24T06:06:42.321Z,42
2018-08-24T06:07:43.927Z,42
2018-08-24T06:08:45.557Z,41.5
2018-08-24T06:09:47.022Z,42
2018-08-24T06:10:48.319Z,42
2018-08-24T06:11:49.590Z,41.5
2018-08-24T06:12:51.200Z,41.5
2018-08-24T06:13:52.470Z,41.1
2018-08-24T06:14:53.568Z,41.1
2018-08-24T06:15:55.557Z,41.5
2018-08-24T06:16:57.549Z,41.5
2018-08-24T06:17:59.156Z,42
2018-08-24T06:19:00.736Z,41.1
2018-08-24T06:20:02.460Z,40.6
2018-08-24T06:21:04.092Z,41.5
2018-08-24T06:22:05.723Z,41.5
2018-08-24T06:23:07.149Z,42
2018-08-24T06:24:08.440Z,41.5
2018-08-24T06:25:09.890Z,41.1
2018-08-24T06:26:11.365Z,41.1
2018-08-24T06:27:12.807Z,41.1
2018-08-24T06:28:14.286Z,41.5
2018-08-24T06:29:15.740Z,41.5
2018-08-24T06:30:17.396Z,41.5
2018-08-24T06:31:19.008Z,41.1
2018-08-24T06:32:20.679Z,40.6
2018-08-24T06:33:22.135Z,40.6
2018-08-24T06:34:23.767Z,41.1
2018-08-24T06:35:25.385Z,41.1
2018-08-24T06:36:27.008Z,41.1
2018-08-24T06:37:28.646Z,40.6
2018-08-24T06:38:30.163Z,40.6
2018-08-24T06:39:31.617Z,40.6
2018-08-24T06:40:33.229Z,41.1
2018-08-24T06:41:34.850Z,40.6
2018-08-24T06:42:36.459Z,40.6
2018-08-24T06:43:37.737Z,40.6
2018-08-24T06:44:39.195Z,40.6
2018-08-24T06:45:40.630Z,40.6
2018-08-24T06:46:42.254Z,41.1
2018-08-24T06:47:44.419Z,40.6
2018-08-24T06:48:46.317Z,40.6
2018-08-24T06:49:47.937Z,40.1
2018-08-24T06:50:49.534Z,40.1
2018-08-24T06:51:51.007Z,40.1
2018-08-24T06:52:52.697Z,39.6
2018-08-24T06:53:54.704Z,40.6
2018-08-24T06:54:56.534Z,41.1
2018-08-24T06:55:58.190Z,40.1
2018-08-24T06:56:59.658Z,40.6
2018-08-24T06:58:01.270Z,39.6
2018-08-24T06:59:02.577Z,40.1
2018-08-24T07:00:04.170Z,41.1
2018-08-24T07:01:05.800Z,40.1
2018-08-24T07:02:07.066Z,40.6
2018-08-24T07:03:08.528Z,40.6
2018-08-24T07:04:10.161Z,40.1
2018-08-24T07:05:11.593Z,40.1
2018-08-24T07:06:13.219Z,39.6
2018-08-24T07:07:14.686Z,39.6
2018-08-24T07:08:16.313Z,40.1
2018-08-24T07:09:17.927Z,39.6
2018-08-24T07:10:19.386Z,40.1
2018-08-24T07:11:21.010Z,39.6
2018-08-24T07:12:22.642Z,40.1
2018-08-24T07:13:24.245Z,39.6
2018-08-24T07:14:25.878Z,40.1
2018-08-24T07:15:27.500Z,40.1
2018-08-24T07:16:29.125Z,40.1
2018-08-24T07:17:30.573Z,40.6
2018-08-24T07:18:32.020Z,39.6
2018-08-24T07:19:33.638Z,40.1
2018-08-24T07:20:35.096Z,39.6
2018-08-24T07:21:36.549Z,39.6
2018-08-24T07:22:38.187Z,39.6
2018-08-24T07:23:39.623Z,39.1
2018-08-24T07:24:41.087Z,40.1
2018-08-24T07:25:42.534Z,39.6
2018-08-24T07:26:43.659Z,39.6
2018-08-24T07:27:45.281Z,39.6
2018-08-24T07:28:46.731Z,39.1
2018-08-24T07:29:48.362Z,38.6
2018-08-24T07:30:49.966Z,40.1
2018-08-24T07:31:51.584Z,39.6
2018-08-24T07:32:53.234Z,39.6
2018-08-24T07:33:54.708Z,39.6
2018-08-24T07:34:56.013Z,40.1
2018-08-24T07:35:57.623Z,39.6
2018-08-24T07:36:59.070Z,40.1
2018-08-24T07:38:00.711Z,39.6
2018-08-24T07:39:02.164Z,40.1
2018-08-24T07:40:03.783Z,41.5
2018-08-24T07:41:05.222Z,40.6
2018-08-24T07:42:06.532Z,41.1
2018-08-24T07:43:08.160Z,40.6
2018-08-24T07:44:09.612Z,41.1
2018-08-24T07:45:11.358Z,40.1
2018-08-24T07:46:13.173Z,41.5
2018-08-24T07:47:14.879Z,42
2018-08-24T07:48:16.349Z,41.1
2018-08-24T07:49:17.787Z,41.5
2018-08-24T07:50:19.422Z,42
2018-08-24T07:51:20.848Z,41.5
2018-08-24T07:52:22.484Z,41.5
2018-08-24T07:53:23.938Z,41.1
2018-08-24T07:54:25.377Z,42
2018-08-24T07:55:27.044Z,41.5
2018-08-24T07:56:28.923Z,42.5
2018-08-24T07:57:30.522Z,41.5
2018-08-24T07:58:32.147Z,41.5
2018-08-24T07:59:33.271Z,41.5
2018-08-24T08:00:34.882Z,41.5
2018-08-24T08:01:36.340Z,41.5
2018-08-24T08:02:37.796Z,42
2018-08-24T08:03:39.228Z,42
2018-08-24T08:04:40.684Z,41.5
2018-08-24T08:05:42.294Z,41.5
2018-08-24T08:06:43.743Z,41.5
2018-08-24T08:07:45.299Z,41.5
2018-08-24T08:08:46.919Z,41.5
2018-08-24T08:09:48.575Z,41.5
2018-08-24T08:10:50.175Z,42
2018-08-24T08:11:51.784Z,42
2018-08-24T08:12:53.398Z,41.5
2018-08-24T08:13:54.885Z,41.5
2018-08-24T08:14:56.494Z,41.5
2018-08-24T08:15:58.120Z,42
2018-08-24T08:16:59.562Z,41.5
2018-08-24T08:18:01.072Z,41.1
2018-08-24T08:19:02.889Z,41.5
2018-08-24T08:20:04.323Z,41.1
2018-08-24T08:21:05.961Z,41.1
2018-08-24T08:22:07.606Z,41.1
2018-08-24T08:23:09.083Z,41.1
2018-08-24T08:24:10.527Z,41.1
2018-08-24T08:25:11.996Z,41.5
2018-08-24T08:26:13.285Z,41.1
2018-08-24T08:27:14.887Z,41.1
2018-08-24T08:28:16.507Z,41.1
2018-08-24T08:29:17.945Z,40.6
2018-08-24T08:30:19.380Z,40.6
2018-08-24T08:31:20.867Z,41.1
2018-08-24T08:32:22.306Z,40.6
2018-08-24T08:33:23.918Z,41.1
2018-08-24T08:34:25.529Z,40.6
2018-08-24T08:35:27.144Z,41.1
2018-08-24T08:36:28.600Z,40.6
2018-08-24T08:37:30.210Z,40.6
2018-08-24T08:38:31.678Z,40.6
2018-08-24T08:39:33.151Z,40.6
2018-08-24T08:40:34.627Z,40.6
2018-08-24T08:41:36.253Z,41.1
2018-08-24T08:42:37.715Z,40.6
2018-08-24T08:43:39.147Z,40.6
2018-08-24T08:44:40.591Z,41.5
2018-08-24T08:45:42.063Z,41.1
2018-08-24T08:46:43.689Z,40.1
2018-08-24T08:47:45.162Z,40.6
2018-08-24T08:48:46.788Z,40.6
2018-08-24T08:49:48.400Z,41.1
2018-08-24T08:50:49.853Z,40.6
2018-08-24T08:51:51.293Z,40.1
2018-08-24T08:52:52.931Z,40.1
2018-08-24T08:53:54.576Z,40.1
2018-08-24T08:54:56.084Z,40.6
2018-08-24T08:55:57.691Z,41.1
2018-08-24T08:56:59.122Z,40.6
2018-08-24T08:58:00.735Z,41.1
2018-08-24T08:59:02.174Z,40.1
2018-08-24T09:00:03.786Z,39.6
2018-08-24T09:01:05.221Z,39.6
2018-08-24T09:02:06.653Z,40.6
2018-08-24T09:03:07.921Z,40.6
2018-08-24T09:04:09.394Z,39.6
2018-08-24T09:05:10.993Z,40.1
2018-08-24T09:06:13.567Z,39.6
2018-08-24T09:07:15.510Z,40.1
2018-08-24T09:08:16.961Z,40.1
2018-08-24T09:09:18.426Z,40.1
2018-08-24T09:10:19.871Z,40.1
2018-08-24T09:11:21.490Z,40.1
2018-08-24T09:12:22.938Z,40.6
2018-08-24T09:13:24.419Z,40.1
2018-08-24T09:14:26.092Z,40.1
2018-08-24T09:15:27.698Z,40.1
2018-08-24T09:16:29.146Z,39.6
2018-08-24T09:17:30.778Z,40.1
2018-08-24T09:18:32.650Z,40.6
2018-08-24T09:19:34.583Z,40.1
2018-08-24T09:20:36.207Z,40.1
2018-08-24T09:21:37.796Z,40.1
2018-08-24T09:22:39.229Z,39.1
2018-08-24T09:23:40.507Z,39.1
2018-08-24T09:24:42.132Z,39.6
2018-08-24T09:25:44.293Z,39.6
2018-08-24T09:26:46.194Z,39.1
2018-08-24T09:27:47.825Z,40.1
2018-08-24T09:28:49.416Z,39.6
2018-08-24T09:29:50.911Z,39.6
2018-08-24T09:30:52.372Z,39.1
2018-08-24T09:31:54.002Z,39.6
2018-08-24T09:32:56.080Z,39.6
2018-08-24T09:33:58.067Z,40.6
2018-08-24T09:34:59.688Z,40.1
2018-08-24T09:36:01.336Z,40.1
2018-08-24T09:37:02.780Z,40.6
2018-08-24T09:38:04.803Z,40.6
2018-08-24T09:39:06.292Z,40.6
2018-08-24T09:40:07.929Z,41.1
2018-08-24T09:41:09.214Z,41.1
2018-08-24T09:42:10.843Z,40.6
2018-08-24T09:43:13.086Z,40.6
2018-08-24T09:44:14.560Z,41.1
2018-08-24T09:45:16.173Z,41.5
2018-08-24T09:46:17.782Z,41.5
2018-08-24T09:47:19.407Z,41.1
2018-08-24T09:48:21.046Z,42
2018-08-24T09:49:22.676Z,41.5
2018-08-24T09:50:23.971Z,42
2018-08-24T09:51:25.590Z,41.5
2018-08-24T09:52:27.216Z,41.1
2018-08-24T09:53:28.822Z,42.5
2018-08-24T09:54:30.452Z,41.5
2018-08-24T09:55:31.927Z,41.1
2018-08-24T09:56:33.299Z,41.1
2018-08-24T09:57:34.921Z,41.5
2018-08-24T09:58:36.384Z,42
2018-08-24T09:59:38.017Z,42
2018-08-24T10:00:39.615Z,41.5
2018-08-24T10:01:41.241Z,41.5
2018-08-24T10:02:43.100Z,42
2018-08-24T10:03:44.731Z,41.5
2018-08-24T10:04:46.007Z,41.5
2018-08-24T10:05:47.469Z,41.5
2018-08-24T10:06:49.659Z,41.1
2018-08-24T10:07:51.763Z,41.5
2018-08-24T10:08:53.226Z,41.5
2018-08-24T10:09:54.854Z,41.1
2018-08-24T10:10:56.309Z,41.5
2018-08-24T10:11:57.781Z,41.5
2018-08-24T10:12:59.422Z,41.5
2018-08-24T10:14:00.893Z,41.5
2018-08-24T10:15:02.514Z,42
2018-08-24T10:16:04.164Z,42
2018-08-24T10:17:05.840Z,41.1
2018-08-24T10:18:07.476Z,40.6
2018-08-24T10:19:08.937Z,41.5
2018-08-24T10:20:10.397Z,41.1
2018-08-24T10:21:12.012Z,41.5
2018-08-24T10:22:13.631Z,41.5
2018-08-24T10:23:15.502Z,41.5
2018-08-24T10:24:17.115Z,42
2018-08-24T10:25:18.407Z,41.5
2018-08-24T10:26:19.851Z,40.6
2018-08-24T10:27:21.475Z,41.5
2018-08-24T10:28:22.756Z,40.6
2018-08-24T10:29:23.820Z,41.1
2018-08-24T10:30:25.882Z,41.1
2018-08-24T10:31:27.478Z,41.1
2018-08-24T10:32:29.109Z,40.6
2018-08-24T10:33:30.725Z,40.6
2018-08-24T10:34:32.402Z,40.6
2018-08-24T10:35:33.860Z,40.6
2018-08-24T10:36:35.301Z,41.1
2018-08-24T10:37:36.926Z,41.5
2018-08-24T10:38:38.192Z,41.1
2018-08-24T10:39:39.820Z,40.6
2018-08-24T10:40:41.140Z,40.6
2018-08-24T10:41:42.730Z,40.1
2018-08-24T10:42:44.596Z,40.1
2018-08-24T10:43:46.135Z,41.1
2018-08-24T10:44:47.423Z,40.6
2018-08-24T10:45:49.019Z,40.6
2018-08-24T10:46:50.484Z,40.1
2018-08-24T10:47:52.008Z,40.6
2018-08-24T10:48:53.611Z,40.1
2018-08-24T10:49:55.058Z,40.1
2018-08-24T10:50:56.496Z,40.6
2018-08-24T10:51:58.148Z,40.1
2018-08-24T10:52:59.808Z,40.6
2018-08-24T10:54:01.426Z,40.6
2018-08-24T10:55:03.273Z,40.6
2018-08-24T10:56:05.143Z,41.1
2018-08-24T10:57:06.857Z,39.6
2018-08-24T10:58:08.305Z,40.1
2018-08-24T10:59:09.941Z,40.6
2018-08-24T11:00:11.565Z,40.6
2018-08-24T11:01:13.028Z,40.6
2018-08-24T11:02:14.825Z,40.1
2018-08-24T11:03:16.450Z,40.6
2018-08-24T11:04:17.916Z,41.1
2018-08-24T11:05:19.790Z,40.6
2018-08-24T11:06:21.353Z,40.1
2018-08-24T11:07:23.592Z,39.6
2018-08-24T11:08:25.680Z,40.1
2018-08-24T11:09:27.316Z,40.1
2018-08-24T11:10:28.928Z,39.6
2018-08-24T11:11:30.546Z,39.6
2018-08-24T11:12:31.999Z,40.6
2018-08-24T11:13:33.450Z,39.6
2018-08-24T11:14:35.095Z,39.1
2018-08-24T11:15:36.744Z,40.1
2018-08-24T11:16:38.092Z,39.6
2018-08-24T11:17:39.811Z,40.1
2018-08-24T11:18:41.498Z,40.1
2018-08-24T11:19:43.112Z,39.6
2018-08-24T11:20:44.566Z,40.1
2018-08-24T11:21:46.189Z,39.6
2018-08-24T11:22:47.820Z,40.6
2018-08-24T11:23:49.422Z,40.1
2018-08-24T11:24:51.039Z,40.1
2018-08-24T11:25:52.668Z,40.6
2018-08-24T11:26:54.816Z,40.1
2018-08-24T11:27:56.667Z,39.6
2018-08-24T11:28:58.116Z,40.1
2018-08-24T11:29:59.556Z,40.1
2018-08-24T11:31:00.840Z,40.1
2018-08-24T11:32:02.473Z,39.6
2018-08-24T11:33:04.218Z,40.1
2018-08-24T11:34:06.300Z,39.6
2018-08-24T11:35:08.345Z,40.6
2018-08-24T11:36:10.690Z,40.6
2018-08-24T11:37:12.626Z,40.6
2018-08-24T11:38:14.228Z,41.5
2018-08-24T11:39:15.874Z,40.6
2018-08-24T11:40:17.317Z,40.6
2018-08-24T11:41:18.945Z,41.1
2018-08-24T11:42:20.658Z,41.5
2018-08-24T11:43:22.283Z,41.1
2018-08-24T11:44:23.748Z,41.1
2018-08-24T11:45:25.042Z,41.1
2018-08-24T11:46:26.511Z,41.5
2018-08-24T11:47:27.963Z,42
2018-08-24T11:48:29.557Z,41.5
2018-08-24T11:49:31.153Z,42
2018-08-24T11:50:32.605Z,42.5
2018-08-24T11:51:34.047Z,42.5
2018-08-24T11:52:35.330Z,41.5
2018-08-24T11:53:36.809Z,42
2018-08-24T11:54:38.834Z,42
2018-08-24T11:55:40.446Z,41.5
2018-08-24T11:56:41.921Z,41.5
2018-08-24T11:57:43.567Z,42.5
2018-08-24T11:58:45.187Z,42.5
2018-08-24T11:59:46.982Z,42
2018-08-24T12:00:48.847Z,42
2018-08-24T12:01:50.290Z,42
2018-08-24T12:02:51.737Z,42
2018-08-24T12:03:53.390Z,41.5
2018-08-24T12:04:55.015Z,41.1
2018-08-24T12:05:56.474Z,42
2018-08-24T12:06:57.930Z,42
2018-08-24T12:08:00.226Z,42
2018-08-24T12:09:02.490Z,42
2018-08-24T12:10:04.106Z,42
2018-08-24T12:11:05.704Z,41.5
2018-08-24T12:12:07.343Z,41.5
2018-08-24T12:13:09.212Z,42
2018-08-24T12:14:11.143Z,42
2018-08-24T12:15:12.837Z,41.5
2018-08-24T12:16:14.458Z,41.5
2018-08-24T12:17:16.077Z,41.1
2018-08-24T12:18:17.726Z,41.1
2018-08-24T12:19:19.389Z,41.5
2018-08-24T12:20:21.030Z,41.5
2018-08-24T12:21:22.997Z,41.1
2018-08-24T12:22:24.938Z,41.5
2018-08-24T12:23:26.547Z,41.5
2018-08-24T12:24:28.530Z,41.5
2018-08-24T12:25:30.374Z,42
2018-08-24T12:26:31.833Z,41.5
2018-08-24T12:27:33.274Z,40.6
2018-08-24T12:28:34.743Z,41.5
2018-08-24T12:29:36.352Z,41.5
2018-08-24T12:30:37.626Z,41.1
2018-08-24T12:31:38.918Z,41.1
2018-08-24T12:32:40.366Z,41.5
2018-08-24T12:33:41.987Z,41.1
2018-08-24T12:34:43.660Z,40.6
2018-08-24T12:35:45.275Z,42
2018-08-24T12:36:46.885Z,41.1
2018-08-24T12:37:48.021Z,40.6
2018-08-24T12:38:49.608Z,41.1
2018-08-24T12:39:51.070Z,40.6
2018-08-24T12:40:52.676Z,40.6
2018-08-24T12:41:54.277Z,41.1
2018-08-24T12:42:55.758Z,40.1
2018-08-24T12:43:57.387Z,41.5
2018-08-24T12:44:59.033Z,41.5
2018-08-24T12:46:00.672Z,41.1
2018-08-24T12:47:01.953Z,41.1
2018-08-24T12:48:03.551Z,41.1
2018-08-24T12:49:05.151Z,39.6
2018-08-24T12:50:06.765Z,40.6
2018-08-24T12:51:08.279Z,40.6
2018-08-24T12:52:10.159Z,40.1
2018-08-24T12:53:12.155Z,40.6
2018-08-24T12:54:13.765Z,40.6
2018-08-24T12:55:15.389Z,40.6
2018-08-24T12:56:16.992Z,40.1
2018-08-24T12:57:18.618Z,40.6
2018-08-24T12:58:20.237Z,40.6
2018-08-24T12:59:21.678Z,41.1
2018-08-24T13:00:23.147Z,40.1
2018-08-24T13:01:24.768Z,40.1
2018-08-24T13:02:26.213Z,40.1
2018-08-24T13:03:27.835Z,41.1
2018-08-24T13:04:29.480Z,40.6
2018-08-24T13:05:30.936Z,40.6
2018-08-24T13:06:32.557Z,40.6
2018-08-24T13:07:34.211Z,40.1
2018-08-24T13:08:35.935Z,40.1
2018-08-24T13:09:37.621Z,40.6
2018-08-24T13:10:39.060Z,39.6
2018-08-24T13:11:40.343Z,40.6
2018-08-24T13:12:41.993Z,41.1
2018-08-24T13:13:43.446Z,40.6
2018-08-24T13:14:45.049Z,40.1
2018-08-24T13:15:46.504Z,40.1
2018-08-24T13:16:48.146Z,40.1
2018-08-24T13:17:49.438Z,39.6
2018-08-24T13:18:51.119Z,39.6
2018-08-24T13:19:52.750Z,39.6
2018-08-24T13:20:54.208Z,40.1
2018-08-24T13:21:55.846Z,40.1
2018-08-24T13:22:57.124Z,39.6
2018-08-24T13:23:58.596Z,40.1
2018-08-24T13:25:00.050Z,40.6
2018-08-24T13:26:01.523Z,40.1
2018-08-24T13:27:03.154Z,39.6
2018-08-24T13:28:04.435Z,40.1
2018-08-24T13:29:05.879Z,39.6
2018-08-24T13:30:07.516Z,39.6
2018-08-24T13:31:08.985Z,40.1
2018-08-24T13:32:10.270Z,40.6
2018-08-24T13:33:11.716Z,39.6
2018-08-24T13:34:13.336Z,39.6
2018-08-24T13:35:14.461Z,40.1
2018-08-24T13:36:16.096Z,39.1
2018-08-24T13:37:17.564Z,39.6
2018-08-24T13:38:19.164Z,39.6
2018-08-24T13:39:20.767Z,40.1
2018-08-24T13:40:22.412Z,40.6
2018-08-24T13:41:24.052Z,40.1
2018-08-24T13:42:25.679Z,40.6
2018-08-24T13:43:27.314Z,40.6
2018-08-24T13:44:29.000Z,40.6